Time;durP1;ratioP1;P1;durP2;ratioP2;P2;SDS_P1;SDS_P2;PMS_P1;PMS_P2;Temp;Humidity;BMP_temperature;BMP_pressure;BME280_temperature;BME280_humidity;BME280_pressure;Samples;Min_cycle;Max_cycle;Signal;HPM_P1;HPM_P2
2021/03/17 00:01:15;;;;;;;11.35;1.77;;;;;;;-0.50;90.86;101220.94;5054945;28;20029;-80
2021/03/17 00:03:40;;;;;;;11.07;1.52;;;;;;;-0.56;92.35;101219.84;5057013;28;20397;-80
2021/03/17 00:06:05;;;;;;;10.43;1.70;;;;;;;-0.67;92.87;101218.59;5056116;28;20086;-81
2021/03/17 00:08:31;;;;;;;11.02;2.15;;;;;;;-0.62;93.63;101214.53;5057055;28;20392;-81
2021/03/17 00:10:56;;;;;;;16.08;3.03;;;;;;;-0.86;94.21;101217.91;5055164;28;20020;-80
2021/03/17 00:13:27;;;;;;;7.00;1.67;;;;;;;-1.00;93.36;101222.44;5054701;28;20021;-80
2021/03/17 00:15:54;;;;;;;12.48;1.75;;;;;;;-1.03;94.45;101219.75;5056647;28;20033;-81
2021/03/17 00:18:19;;;;;;;8.65;1.60;;;;;;;-0.86;95.50;101220.44;5055336;28;20025;-80
2021/03/17 00:20:44;;;;;;;11.93;2.13;;;;;;;-0.74;94.71;101225.09;5054797;28;20035;-81
2021/03/17 00:23:10;;;;;;;12.25;1.55;;;;;;;-0.76;94.37;101231.84;5056002;28;20086;-80
2021/03/17 00:25:38;;;;;;;7.40;1.55;;;;;;;-0.91;94.35;101226.16;5055964;28;20447;-81
2021/03/17 00:28:03;;;;;;;7.30;1.40;;;;;;;-1.10;95.62;101232.22;5055041;28;20074;-80
2021/03/17 00:30:30;;;;;;;9.63;1.58;;;;;;;-1.18;96.24;101231.88;5056091;28;20025;-81
2021/03/17 00:32:56;;;;;;;8.90;1.63;;;;;;;-1.22;96.23;101228.34;5054480;28;20021;-80
2021/03/17 00:35:23;;;;;;;6.35;1.77;;;;;;;-1.19;97.33;101231.03;5055034;28;20482;-79
2021/03/17 00:37:48;;;;;;;12.95;1.77;;;;;;;-1.16;97.46;101225.19;5055683;28;20068;-81
2021/03/17 00:40:14;;;;;;;6.60;1.35;;;;;;;-1.24;97.27;101227.41;5055842;28;20029;-80
2021/03/17 00:42:39;;;;;;;12.65;2.33;;;;;;;-1.19;97.77;101225.06;5055766;28;20021;-80
2021/03/17 00:45:05;;;;;;;9.07;1.70;;;;;;;-1.18;97.92;101226.78;5055692;28;20445;-81
2021/03/17 00:47:30;;;;;;;10.25;1.80;;;;;;;-1.10;97.58;101224.56;5054244;28;20127;-80
2021/03/17 00:49:55;;;;;;;9.68;1.80;;;;;;;-1.14;98.04;101221.00;5054662;28;20393;-80
2021/03/17 00:52:20;;;;;;;9.68;1.63;;;;;;;-1.10;97.99;101222.03;5056339;28;20025;-80
2021/03/17 00:54:46;;;;;;;12.98;1.75;;;;;;;-0.95;97.82;101220.94;5053976;28;20044;-80
2021/03/17 00:57:11;;;;;;;11.57;1.70;;;;;;;-0.94;97.35;101225.22;5055497;28;20051;-80
2021/03/17 00:59:36;;;;;;;8.23;1.75;;;;;;;-0.94;97.27;101226.91;5054905;28;20027;-81
2021/03/17 01:02:02;;;;;;;12.40;2.03;;;;;;;-0.86;96.62;101229.72;5054224;28;20111;-80
2021/03/17 01:04:27;;;;;;;11.20;1.90;;;;;;;-0.90;96.46;101230.44;5055184;28;20037;-80
2021/03/17 01:06:52;;;;;;;5.10;1.60;;;;;;;-0.87;95.95;101231.41;5053730;28;20029;-80
2021/03/17 01:09:18;;;;;;;11.73;1.80;;;;;;;-0.83;95.46;101227.31;5053549;28;20025;-79
2021/03/17 01:11:43;;;;;;;8.50;1.60;;;;;;;-0.89;94.97;101224.50;5053812;28;20017;-81
2021/03/17 01:14:10;;;;;;;10.13;1.80;;;;;;;-0.92;95.22;101227.84;5053633;28;20023;-81
2021/03/17 01:16:35;;;;;;;6.25;1.15;;;;;;;-0.91;95.02;101223.63;5055223;28;20380;-80
2021/03/17 01:19:00;;;;;;;17.40;2.60;;;;;;;-1.22;95.23;101233.44;5053797;28;20031;-79
2021/03/17 01:21:26;;;;;;;6.40;1.30;;;;;;;-1.30;96.64;101232.25;5053707;28;20021;-81
2021/03/17 01:23:51;;;;;;;7.68;1.15;;;;;;;-1.32;97.39;101220.31;5055568;28;20036;-79
2021/03/17 01:26:16;;;;;;;9.32;1.70;;;;;;;-1.38;97.49;101223.47;5055421;28;20063;-80
2021/03/17 01:28:42;;;;;;;10.20;1.45;;;;;;;-1.37;97.04;101232.81;5053893;28;20025;-81
2021/03/17 01:31:07;;;;;;;12.27;1.77;;;;;;;-1.51;97.20;101226.28;5053572;28;20121;-80
2021/03/17 01:33:33;;;;;;;6.07;1.38;;;;;;;-1.63;97.19;101236.84;5055146;28;20423;-80
2021/03/17 01:35:59;;;;;;;7.57;1.10;;;;;;;-1.69;97.76;101232.38;5054588;28;20029;-80
2021/03/17 01:38:24;;;;;;;10.82;1.25;;;;;;;-1.50;98.06;101223.81;5053762;28;20074;-80
2021/03/17 01:40:51;;;;;;;6.05;1.05;;;;;;;-1.57;97.25;101231.13;5054707;28;20029;-80
2021/03/17 01:43:17;;;;;;;11.88;1.30;;;;;;;-1.70;97.70;101233.16;5054658;28;20033;-79
2021/03/17 01:45:43;;;;;;;10.73;1.50;;;;;;;-1.69;97.57;101229.81;5054348;28;20103;-81
2021/03/17 01:48:10;;;;;;;10.50;2.25;;;;;;;-1.73;97.85;101239.78;5054729;28;20061;-81
2021/03/17 01:50:38;;;;;;;8.10;1.20;;;;;;;-1.86;98.02;101231.63;5054615;28;20527;-79
2021/03/17 01:53:07;;;;;;;7.55;1.10;;;;;;;-1.84;97.96;101236.78;5053523;28;20079;-80
2021/03/17 01:55:33;;;;;;;7.40;1.33;;;;;;;-1.72;97.78;101234.78;5054826;28;20040;-81
2021/03/17 01:57:58;;;;;;;6.32;1.35;;;;;;;-1.63;97.29;101227.53;5053524;28;20068;-81
2021/03/17 02:00:24;;;;;;;16.00;1.80;;;;;;;-1.58;96.40;101234.47;5054393;28;20017;-80
2021/03/17 02:02:52;;;;;;;11.70;1.58;;;;;;;-1.74;96.93;101231.28;5054416;28;20032;-80
2021/03/17 02:05:21;;;;;;;10.85;2.00;;;;;;;-1.90;96.71;101234.84;5053946;28;20029;-81
2021/03/17 02:07:47;;;;;;;9.45;1.67;;;;;;;-1.82;97.98;101239.38;5053372;28;20106;-79
2021/03/17 02:10:17;;;;;;;9.25;1.90;;;;;;;-1.80;97.25;101233.56;5054504;28;20402;-79
2021/03/17 02:12:56;;;;;;;6.97;1.50;;;;;;;-1.88;97.89;101229.81;5053412;28;20540;-79
2021/03/17 02:15:59;;;;;;;9.85;1.48;;;;;;;-1.93;98.04;101226.22;5053344;28;20025;-80
2021/03/17 02:18:36;;;;;;;9.45;1.58;;;;;;;-2.11;97.21;101232.25;5052837;28;20025;-79
2021/03/17 02:21:29;;;;;;;6.50;1.25;;;;;;;-2.11;97.71;101227.16;5055146;28;20029;-80
2021/03/17 02:24:12;;;;;;;9.23;1.15;;;;;;;-2.04;98.41;101227.44;5058491;28;20025;-80
2021/03/17 02:27:02;;;;;;;6.00;1.20;;;;;;;-2.15;97.83;101222.75;5057499;28;20115;-79
2021/03/17 02:30:05;;;;;;;6.15;1.50;;;;;;;-2.23;98.34;101223.22;5056990;28;20397;-80
2021/03/17 02:32:36;;;;;;;10.88;1.38;;;;;;;-1.93;97.20;101221.16;5058409;28;20028;-80
2021/03/17 02:35:05;;;;;;;11.38;1.27;;;;;;;-1.82;96.34;101221.59;5056809;28;20024;-81
2021/03/17 02:37:32;;;;;;;8.15;1.23;;;;;;;-1.74;95.57;101222.78;5056674;28;20045;-79
2021/03/17 02:40:31;;;;;;;9.40;1.80;;;;;;;-1.74;95.78;101217.72;5056741;28;20032;-80
2021/03/17 02:43:19;;;;;;;11.82;1.40;;;;;;;-1.70;95.16;101219.56;5044739;28;20086;-81
2021/03/17 02:45:51;;;;;;;9.65;1.20;;;;;;;-1.77;95.33;101218.44;5058018;28;20039;-81
2021/03/17 02:48:29;;;;;;;13.45;1.52;;;;;;;-1.81;95.89;101211.50;5057845;28;20024;-80
2021/03/17 02:51:00;;;;;;;7.35;1.30;;;;;;;-1.78;95.45;101213.31;5056285;28;20393;-81
2021/03/17 02:53:27;;;;;;;12.00;1.60;;;;;;;-1.92;96.33;101213.56;5058013;28;20042;-80
2021/03/17 02:56:00;;;;;;;10.90;1.48;;;;;;;-2.00;95.90;101214.94;5057626;28;20028;-81
2021/03/17 02:58:26;;;;;;;6.65;1.15;;;;;;;-2.06;97.26;101218.84;5056276;28;20024;-79
2021/03/17 03:00:52;;;;;;;9.13;1.00;;;;;;;-1.90;96.81;101218.75;5056266;28;20095;-81
2021/03/17 03:03:20;;;;;;;8.30;1.60;;;;;;;-1.87;97.10;101216.31;5056387;28;20120;-79
2021/03/17 03:05:47;;;;;;;5.78;1.20;;;;;;;-1.72;95.84;101211.88;5057398;28;20080;-81
2021/03/17 03:08:13;;;;;;;11.40;1.25;;;;;;;-1.65;95.99;101218.09;5057730;28;20025;-80
2021/03/17 03:10:40;;;;;;;12.82;1.50;;;;;;;-1.50;95.17;101216.19;5055867;28;20112;-79
2021/03/17 03:13:06;;;;;;;8.82;1.40;;;;;;;-1.44;94.48;101213.03;5057223;28;20070;-80
2021/03/17 03:15:33;;;;;;;6.53;1.50;;;;;;;-1.45;95.03;101216.38;5057226;28;20393;-80
2021/03/17 03:18:02;;;;;;;9.48;1.52;;;;;;;-1.41;94.44;101208.94;5056198;28;20021;-80
2021/03/17 03:20:30;;;;;;;8.70;1.60;;;;;;;-1.33;94.87;101216.00;5055823;28;20512;-79
2021/03/17 03:22:56;;;;;;;7.22;1.80;;;;;;;-1.28;94.25;101205.19;5055946;28;20059;-79
2021/03/17 03:25:23;;;;;;;9.10;1.65;;;;;;;-1.29;93.95;101206.03;5057072;28;20024;-81
2021/03/17 03:27:50;;;;;;;9.77;1.30;;;;;;;-1.27;94.21;101212.03;5055816;28;20025;-80
2021/03/17 03:30:24;;;;;;;7.63;1.50;;;;;;;-1.28;94.77;101206.88;5055695;28;20450;-80
2021/03/17 03:32:49;;;;;;;16.92;1.63;;;;;;;-1.29;94.78;101216.19;5055635;28;20024;-80
2021/03/17 03:35:16;;;;;;;13.48;1.60;;;;;;;-1.31;94.69;101219.47;5055643;28;20029;-81
2021/03/17 03:37:41;;;;;;;13.20;1.25;;;;;;;-1.29;94.80;101215.31;5055600;28;20092;-80
2021/03/17 03:40:12;;;;;;;5.15;1.08;;;;;;;-1.29;94.55;101222.94;5055905;28;20104;-80
2021/03/17 03:42:37;;;;;;;7.22;1.15;;;;;;;-1.34;94.76;101216.81;5054968;28;20024;-80
2021/03/17 03:45:05;;;;;;;7.45;1.20;;;;;;;-1.23;94.27;101223.19;5055622;28;20021;-80
2021/03/17 03:47:30;;;;;;;7.28;0.93;;;;;;;-1.33;94.58;101216.88;5056574;28;20080;-80
2021/03/17 03:49:58;;;;;;;10.43;1.35;;;;;;;-1.32;94.59;101217.75;5057040;28;20040;-80
2021/03/17 03:52:29;;;;;;;10.05;1.55;;;;;;;-1.40;95.11;101214.88;5055359;28;20020;-80
2021/03/17 03:55:03;;;;;;;10.98;1.23;;;;;;;-1.34;95.07;101220.22;5055161;28;20017;-81
2021/03/17 03:57:36;;;;;;;6.85;2.35;;;;;;;-1.54;95.94;101221.06;5055517;28;20037;-80
2021/03/17 04:00:07;;;;;;;9.10;1.80;;;;;;;-1.35;96.16;101228.66;5055373;28;20035;-80
2021/03/17 04:02:36;;;;;;;10.43;1.63;;;;;;;-1.18;94.55;101222.56;5055629;28;20025;-81
2021/03/17 04:05:02;;;;;;;9.23;1.42;;;;;;;-1.18;94.72;101224.25;5055295;28;20124;-81
2021/03/17 04:07:30;;;;;;;7.97;1.55;;;;;;;-1.19;94.99;101225.94;5056498;28;20050;-80
2021/03/17 04:10:02;;;;;;;9.05;1.98;;;;;;;-1.17;95.05;101229.41;5057004;28;20473;-80
2021/03/17 04:12:28;;;;;;;12.23;1.40;;;;;;;-1.18;94.79;101225.13;5055339;28;20021;-80
2021/03/17 04:14:57;;;;;;;10.45;1.10;;;;;;;-1.20;94.99;101228.41;5055065;28;20025;-81
2021/03/17 04:17:27;;;;;;;10.05;1.48;;;;;;;-1.29;94.88;101238.19;5054952;28;20489;-80
2021/03/17 04:19:58;;;;;;;11.60;1.20;;;;;;;-1.31;95.81;101227.13;5054990;28;20048;-81
2021/03/17 04:22:26;;;;;;;12.82;1.40;;;;;;;-1.37;95.32;101224.31;5056453;28;20107;-80
2021/03/17 04:24:53;;;;;;;6.60;1.70;;;;;;;-1.29;94.52;101234.00;5056651;28;20370;-81
2021/03/17 04:27:20;;;;;;;9.13;1.33;;;;;;;-1.41;95.27;101234.38;5054533;28;20071;-80
2021/03/17 04:29:47;;;;;;;12.73;1.25;;;;;;;-1.28;94.60;101232.34;5056181;28;20508;-80
2021/03/17 04:32:15;;;;;;;11.80;1.40;;;;;;;-1.31;94.30;101237.28;5054724;28;20494;-80
2021/03/17 04:34:43;;;;;;;10.10;1.60;;;;;;;-1.43;95.10;101238.53;5054472;28;20599;-81
2021/03/17 04:37:09;;;;;;;8.55;1.23;;;;;;;-1.43;94.99;101240.19;5054356;28;20060;-81
2021/03/17 04:39:37;;;;;;;7.68;1.10;;;;;;;-1.45;94.42;101236.72;5055749;28;20029;-80
2021/03/17 04:42:02;;;;;;;8.18;1.33;;;;;;;-1.43;94.75;101240.19;5055739;28;20021;-80
2021/03/17 04:44:28;;;;;;;8.35;1.63;;;;;;;-1.48;95.03;101244.22;5054832;28;20111;-81
2021/03/17 04:46:54;;;;;;;9.35;1.33;;;;;;;-1.51;94.03;101249.19;5054566;28;20056;-80
2021/03/17 04:49:21;;;;;;;5.88;1.05;;;;;;;-1.51;94.61;101244.97;5056528;28;20029;-80
2021/03/17 04:51:48;;;;;;;9.40;1.25;;;;;;;-1.55;94.82;101248.19;5054196;28;20452;-80
2021/03/17 04:54:14;;;;;;;10.70;1.30;;;;;;;-1.69;95.19;101249.31;5055758;28;20110;-80
2021/03/17 04:56:41;;;;;;;9.13;1.10;;;;;;;-1.79;95.86;101255.63;5055736;28;20021;-80
2021/03/17 04:59:09;;;;;;;6.93;1.20;;;;;;;-1.69;95.63;101252.72;5055822;28;20066;-80
2021/03/17 05:01:36;;;;;;;9.20;1.63;;;;;;;-1.66;95.48;101249.44;5054116;28;20547;-80
2021/03/17 05:04:03;;;;;;;7.63;1.10;;;;;;;-1.78;95.95;101249.78;5053846;28;20394;-81
2021/03/17 05:06:31;;;;;;;8.38;1.67;;;;;;;-1.77;95.70;101251.50;5054191;28;20021;-80
2021/03/17 05:08:58;;;;;;;9.52;1.33;;;;;;;-1.73;95.67;101255.03;5054409;28;20040;-80
2021/03/17 05:11:24;;;;;;;12.35;1.45;;;;;;;-1.68;95.26;101248.47;5055865;28;20055;-80
2021/03/17 05:13:49;;;;;;;11.00;2.08;;;;;;;-1.76;95.90;101254.91;5054344;28;20025;-80
2021/03/17 05:16:15;;;;;;;12.82;3.05;;;;;;;-1.78;96.03;101259.94;5054013;28;20021;-80
2021/03/17 05:18:41;;;;;;;12.27;1.35;;;;;;;-1.84;96.07;101249.50;5055217;28;20024;-81
2021/03/17 05:21:09;;;;;;;9.05;1.92;;;;;;;-1.92;96.50;101259.31;5053726;28;20056;-80
2021/03/17 05:23:39;;;;;;;17.45;1.92;;;;;;;-1.95;96.91;101260.88;5055207;28;20029;-80
2021/03/17 05:26:04;;;;;;;9.13;1.60;;;;;;;-1.89;96.70;101259.47;5053576;28;20488;-80
2021/03/17 05:28:30;;;;;;;14.98;1.88;;;;;;;-1.98;96.81;101266.69;5054898;28;20036;-81
2021/03/17 05:30:57;;;;;;;10.13;1.65;;;;;;;-1.92;96.50;101264.41;5053932;28;20029;-80
2021/03/17 05:33:26;;;;;;;7.32;1.38;;;;;;;-2.02;96.63;101259.75;5054200;28;20013;-80
2021/03/17 05:35:51;;;;;;;9.52;1.15;;;;;;;-2.02;96.62;101263.97;5053599;28;20032;-81
2021/03/17 05:38:16;;;;;;;8.65;1.15;;;;;;;-2.05;97.15;101276.53;5054788;28;20037;-79
2021/03/17 05:40:42;;;;;;;8.95;1.60;;;;;;;-2.01;97.69;101276.72;5053497;28;20048;-80
2021/03/17 05:43:08;;;;;;;6.72;1.13;;;;;;;-2.06;97.44;101268.03;5055146;28;20036;-80
2021/03/17 05:45:35;;;;;;;7.18;1.10;;;;;;;-2.12;97.11;101280.47;5053402;28;20028;-80
2021/03/17 05:48:01;;;;;;;11.13;2.30;;;;;;;-2.15;97.30;101272.72;5054943;28;20025;-80
2021/03/17 05:50:27;;;;;;;9.65;2.58;;;;;;;-2.19;97.93;101283.53;5055371;28;20029;-80
2021/03/17 05:52:52;;;;;;;6.95;1.30;;;;;;;-2.09;97.71;101283.16;5054135;28;20031;-79
2021/03/17 05:55:18;;;;;;;9.35;1.38;;;;;;;-2.08;96.98;101277.25;5056118;28;20024;-80
2021/03/17 05:57:45;;;;;;;8.63;1.08;;;;;;;-2.09;96.51;101283.16;5057694;28;20044;-79
2021/03/17 06:00:13;;;;;;;6.90;1.05;;;;;;;-2.07;97.32;101281.53;5059010;28;20104;-79
2021/03/17 06:02:39;;;;;;;10.75;1.70;;;;;;;-2.10;97.07;101287.34;5059012;28;20025;-80
2021/03/17 06:05:06;;;;;;;13.27;1.40;;;;;;;-2.16;96.94;101287.06;5058647;28;20374;-80
2021/03/17 06:07:41;;;;;;;10.13;1.73;;;;;;;-2.16;97.19;101289.59;5057676;28;20047;-80
2021/03/17 06:10:07;;;;;;;8.90;1.50;;;;;;;-1.99;97.14;101285.28;5058864;28;20024;-80
2021/03/17 06:12:35;;;;;;;6.72;1.50;;;;;;;-1.91;96.61;101286.50;5057039;28;20021;-79
2021/03/17 06:15:02;;;;;;;7.38;1.70;;;;;;;-1.72;95.43;101293.25;5058521;28;20040;-80
2021/03/17 06:17:30;;;;;;;12.27;2.53;;;;;;;-1.59;95.07;101286.16;5057369;28;20021;-80
2021/03/17 06:20:00;;;;;;;8.60;1.35;;;;;;;-1.53;94.41;101296.59;5058621;28;20474;-80
2021/03/17 06:22:26;;;;;;;6.25;1.30;;;;;;;-1.39;93.84;101292.94;5056992;28;20577;-81
2021/03/17 06:24:52;;;;;;;5.70;1.35;;;;;;;-1.28;93.68;101290.84;5058480;28;20025;-80
2021/03/17 06:27:17;;;;;;;15.43;4.00;;;;;;;-0.96;91.71;101289.59;5057678;28;20473;-80
2021/03/17 06:29:43;;;;;;;10.50;1.90;;;;;;;-0.71;90.13;101294.91;5057516;28;20029;-80
2021/03/17 06:32:09;;;;;;;8.80;1.65;;;;;;;-0.58;89.46;101290.28;5057847;28;20115;-79
2021/03/17 06:34:43;;;;;;;8.82;1.55;;;;;;;-0.44;88.98;101286.56;5058463;28;20025;-80
2021/03/17 06:37:08;;;;;;;11.80;2.35;;;;;;;-0.40;88.88;101287.53;5058803;28;20369;-80
2021/03/17 06:39:35;;;;;;;12.43;2.30;;;;;;;-0.16;87.34;101293.56;5059741;28;20032;-80
2021/03/17 06:42:00;;;;;;;11.43;1.92;;;;;;;0.37;85.63;101297.19;5057672;28;20063;-80
2021/03/17 06:44:28;;;;;;;7.80;1.40;;;;;;;0.77;83.04;101288.34;5058707;28;20389;-80
2021/03/17 06:47:19;;;;;;;5.70;1.23;;;;;;;1.45;81.73;101286.25;5057999;28;20032;-80
2021/03/17 06:49:50;;;;;;;9.95;3.40;;;;;;;1.61;80.26;101296.13;5059089;28;20119;-80
2021/03/17 06:52:29;;;;;;;9.95;3.70;;;;;;;2.17;77.85;101290.03;5057871;28;20112;-80
2021/03/17 06:55:18;;;;;;;11.73;3.05;;;;;;;2.44;76.13;101292.47;5057397;28;20155;-81
2021/03/17 06:57:49;;;;;;;7.60;2.42;;;;;;;1.99;78.25;101292.94;5057953;28;20021;-80
2021/03/17 07:00:31;;;;;;;8.93;1.45;;;;;;;2.43;75.84;101293.28;5057343;28;20424;-80
2021/03/17 07:02:59;;;;;;;6.38;1.40;;;;;;;2.70;75.34;101288.03;5059431;28;20025;-80
2021/03/17 07:05:34;;;;;;;12.48;1.50;;;;;;;3.40;73.19;101291.44;5058382;28;20029;-81
2021/03/17 07:08:01;;;;;;;10.90;1.63;;;;;;;3.46;71.57;101294.13;5099049;22;20047;-81
2021/03/17 07:10:29;;;;;;;7.30;1.40;;;;;;;3.65;71.53;101297.97;5075549;28;20115;-80
2021/03/17 07:12:55;;;;;;;10.25;1.40;;;;;;;4.15;69.52;101304.16;5075249;28;20020;-80
2021/03/17 07:15:22;;;;;;;8.27;1.75;;;;;;;3.85;70.64;101299.28;5075830;28;20024;-80
2021/03/17 07:17:49;;;;;;;9.48;1.55;;;;;;;3.63;70.81;101307.31;5076379;28;20032;-80
2021/03/17 07:20:34;;;;;;;7.97;1.25;;;;;;;4.13;68.87;101305.84;5075566;28;20032;-81
2021/03/17 07:23:20;;;;;;;5.80;1.30;;;;;;;3.59;72.21;101308.97;5075364;28;20035;-81
2021/03/17 07:26:09;;;;;;;10.13;1.52;;;;;;;3.59;72.20;101310.66;5075935;28;20032;-81
2021/03/17 07:28:49;;;;;;;9.23;2.05;;;;;;;2.66;75.85;101319.53;5075309;28;20044;-81
2021/03/17 07:31:17;;;;;;;10.77;1.95;;;;;;;2.52;77.46;101317.47;5074784;28;20477;-81
2021/03/17 07:33:42;;;;;;;8.27;2.17;;;;;;;2.49;77.70;101314.81;5074675;28;20476;-81
2021/03/17 07:36:08;;;;;;;11.98;2.50;;;;;;;2.61;77.86;101315.97;5074829;28;20111;-81
2021/03/17 07:38:34;;;;;;;15.13;2.40;;;;;;;3.05;76.98;101326.47;5074634;28;20016;-81
2021/03/17 07:41:00;;;;;;;10.65;2.55;;;;;;;2.41;79.78;101320.56;5075687;28;20028;-80
2021/03/17 07:43:26;;;;;;;10.50;3.15;;;;;;;2.38;80.29;101329.03;5074947;28;20016;-81
2021/03/17 07:45:55;;;;;;;7.25;2.10;;;;;;;2.04;81.60;101337.44;5075797;28;20032;-81
2021/03/17 07:48:21;;;;;;;9.02;2.35;;;;;;;2.08;80.97;101327.31;5075412;28;20029;-80
2021/03/17 07:50:49;;;;;;;8.57;2.45;;;;;;;2.25;79.39;101332.94;5076024;28;20033;-81
2021/03/17 07:53:24;;;;;;;17.35;2.70;;;;;;;2.41;78.91;101330.81;5075122;28;20016;-81
2021/03/17 07:55:54;;;;;;;11.80;2.80;;;;;;;2.39;80.25;101329.88;5074574;28;20468;-81
2021/03/17 07:58:20;;;;;;;10.75;2.40;;;;;;;2.35;79.77;101330.63;5074600;28;20135;-81
2021/03/17 08:00:46;;;;;;;10.57;2.60;;;;;;;2.52;79.14;101334.50;5074317;28;20020;-81
2021/03/17 08:03:13;;;;;;;11.48;3.15;;;;;;;2.44;79.26;101336.88;5074033;28;20535;-81
2021/03/17 08:05:39;;;;;;;13.65;2.92;;;;;;;2.39;80.88;101333.31;5074611;28;20438;-81
2021/03/17 08:08:05;;;;;;;13.32;3.17;;;;;;;2.40;79.96;101334.16;5074498;28;20025;-81
2021/03/17 08:10:31;;;;;;;13.07;3.65;;;;;;;2.56;80.36;101341.47;5075741;28;20469;-81
2021/03/17 08:12:57;;;;;;;19.40;3.78;;;;;;;2.63;80.43;101350.16;5074427;28;20110;-81
2021/03/17 08:15:23;;;;;;;14.02;3.58;;;;;;;2.48;81.88;101348.91;5075441;28;20021;-81
2021/03/17 08:17:48;;;;;;;12.23;3.60;;;;;;;2.78;79.63;101352.28;5075100;28;20021;-81
2021/03/17 08:20:27;;;;;;;11.05;4.00;;;;;;;2.72;79.66;101342.72;5075461;28;20047;-82
2021/03/17 08:22:54;;;;;;;10.55;3.70;;;;;;;2.68;81.14;101338.34;5073898;28;20021;-81
2021/03/17 08:25:43;;;;;;;15.82;4.60;;;;;;;2.82;80.59;101354.94;5074331;28;20036;-81
2021/03/17 08:28:48;;;;;;;12.80;4.13;;;;;;;2.86;79.44;101346.50;5073596;28;20102;-81
2021/03/17 08:31:35;;;;;;;16.48;4.90;;;;;;;2.41;82.08;101347.03;5057106;28;20039;-81
2021/03/17 08:34:20;;;;;;;15.55;4.80;;;;;;;2.51;82.70;101354.13;5073765;28;20029;-81
2021/03/17 08:36:55;;;;;;;11.70;4.43;;;;;;;2.45;82.05;101359.06;5074237;28;20480;-81
2021/03/17 08:39:29;;;;;;;13.93;4.30;;;;;;;2.37;83.30;101360.56;5073373;28;20032;-81
2021/03/17 08:42:01;;;;;;;16.52;4.78;;;;;;;2.23;83.71;101365.28;5074709;28;20020;-81
2021/03/17 08:44:32;;;;;;;17.50;5.22;;;;;;;2.33;83.62;101363.84;5075004;28;20032;-81
2021/03/17 08:47:13;;;;;;;14.73;5.40;;;;;;;2.58;82.88;101369.66;5084505;28;20024;-80
2021/03/17 08:49:39;;;;;;;13.25;4.93;;;;;;;2.59;82.49;101363.72;5078500;28;20111;-81
2021/03/17 08:52:09;;;;;;;14.18;4.90;;;;;;;2.53;82.76;101365.28;5075764;28;20071;-81
2021/03/17 08:54:34;;;;;;;13.80;5.00;;;;;;;2.80;81.31;101360.84;5074184;28;20021;-81
2021/03/17 08:57:09;;;;;;;13.18;4.85;;;;;;;2.53;81.75;101364.41;5075265;28;20051;-80
2021/03/17 09:00:00;;;;;;;15.93;5.28;;;;;;;2.53;83.22;101366.97;5075492;28;20453;-80
2021/03/17 09:02:25;;;;;;;10.32;5.32;;;;;;;2.79;82.70;101370.22;5075267;28;20020;-80
2021/03/17 09:04:59;;;;;;;12.90;5.50;;;;;;;2.81;82.36;101373.72;5074675;28;20396;-81
2021/03/17 09:07:27;;;;;;;13.65;5.38;;;;;;;2.93;82.18;101374.03;5074285;28;20277;-81
2021/03/17 09:09:55;;;;;;;13.07;5.10;;;;;;;3.16;80.52;101376.31;5074372;28;20048;-80
2021/03/17 09:12:26;;;;;;;19.33;5.40;;;;;;;3.17;80.92;101376.38;5074396;28;20104;-80
2021/03/17 09:15:12;;;;;;;16.50;5.57;;;;;;;3.05;81.39;101382.84;5074512;28;20028;-80
2021/03/17 09:17:47;;;;;;;14.63;5.72;;;;;;;3.04;81.11;101378.56;5074673;28;20028;-80
2021/03/17 09:20:15;;;;;;;14.45;5.63;;;;;;;3.23;80.79;101373.06;5074204;28;20029;-80
2021/03/17 09:22:45;;;;;;;15.43;5.40;;;;;;;3.20;81.02;101378.09;5075079;28;20024;-80
2021/03/17 09:25:17;;;;;;;16.58;5.35;;;;;;;3.64;79.55;101376.63;5074070;28;20032;-80
2021/03/17 09:27:56;;;;;;;12.10;5.28;;;;;;;3.88;77.98;101375.47;5074369;28;20055;-80
2021/03/17 09:30:24;;;;;;;19.95;5.80;;;;;;;3.73;77.14;101377.69;5072697;28;20029;-80
2021/03/17 09:32:58;;;;;;;14.30;4.57;;;;;;;3.78;78.27;101379.50;5072984;28;20020;-81
2021/03/17 09:35:23;;;;;;;12.30;4.63;;;;;;;3.97;76.83;101391.03;5072942;28;20032;-80
2021/03/17 09:37:58;;;;;;;14.60;4.53;;;;;;;4.12;76.57;101391.38;5072844;28;20027;-80
2021/03/17 09:40:23;;;;;;;15.23;4.80;;;;;;;4.27;75.26;101397.69;5074247;28;20024;-80
2021/03/17 09:42:49;;;;;;;9.77;4.30;;;;;;;4.69;72.67;101392.53;5073018;28;20024;-80
2021/03/17 09:45:14;;;;;;;16.85;4.60;;;;;;;4.97;72.25;101391.34;5072500;28;20028;-80
2021/03/17 09:47:39;;;;;;;17.45;4.75;;;;;;;5.53;69.75;101388.88;5072641;28;20024;-81
2021/03/17 09:50:14;;;;;;;11.88;4.32;;;;;;;5.33;71.44;101395.41;5073940;28;20033;-81
2021/03/17 09:52:42;;;;;;;10.20;4.20;;;;;;;4.89;71.74;101403.19;5073028;28;20396;-80
2021/03/17 09:55:08;;;;;;;10.80;4.68;;;;;;;4.98;72.52;101405.06;5072610;28;20059;-80
2021/03/17 09:57:34;;;;;;;17.05;4.75;;;;;;;5.10;72.96;101405.28;5074124;28;20035;-81
2021/03/17 09:59:59;;;;;;;14.05;4.53;;;;;;;4.76;74.12;101411.50;5074314;28;20032;-81
2021/03/17 10:02:25;;;;;;;17.35;4.68;;;;;;;4.31;75.79;101422.56;5074496;28;20035;-81
2021/03/17 10:04:51;;;;;;;14.55;4.70;;;;;;;4.30;75.79;101424.28;5074711;28;20031;-82
2021/03/17 10:07:22;;;;;;;14.07;4.55;;;;;;;4.27;75.97;101421.66;5073156;28;20036;-82
2021/03/17 10:09:49;;;;;;;15.07;4.95;;;;;;;4.45;76.18;101422.88;5073466;28;20025;-82
2021/03/17 10:12:21;;;;;;;15.93;5.38;;;;;;;4.84;75.21;101426.25;5073183;28;20020;-82
2021/03/17 10:14:58;;;;;;;14.63;4.53;;;;;;;4.62;76.13;101421.53;5072814;28;20025;-82
2021/03/17 10:17:26;;;;;;;13.90;5.45;;;;;;;4.43;76.85;101419.41;5073922;28;20033;-81
2021/03/17 10:19:55;;;;;;;17.98;5.05;;;;;;;4.52;76.51;101428.16;5074640;28;20024;-81
2021/03/17 10:22:22;;;;;;;15.48;5.00;;;;;;;4.78;76.45;101423.56;5074353;28;20032;-81
2021/03/17 10:24:50;;;;;;;12.75;4.95;;;;;;;4.40;76.69;101433.03;5072650;28;20123;-81
2021/03/17 10:27:17;;;;;;;12.93;5.50;;;;;;;5.27;73.94;101431.31;5072666;28;20446;-81
2021/03/17 10:29:45;;;;;;;10.93;5.35;;;;;;;6.50;70.30;101423.75;5072283;28;20024;-81
2021/03/17 10:32:15;;;;;;;14.20;4.75;;;;;;;7.12;66.11;101421.00;5073831;28;20099;-81
2021/03/17 10:34:40;;;;;;;14.18;4.93;;;;;;;8.00;63.16;101411.34;5073155;28;20396;-81
2021/03/17 10:37:11;;;;;;;13.60;5.35;;;;;;;8.14;62.99;101408.88;5074356;28;20091;-82
2021/03/17 10:39:36;;;;;;;11.95;5.35;;;;;;;7.74;64.05;101412.06;5073160;28;20096;-81
2021/03/17 10:42:03;;;;;;;12.43;5.03;;;;;;;8.25;61.77;101415.81;5076593;28;20028;-81
2021/03/17 10:44:31;;;;;;;11.55;4.72;;;;;;;9.10;60.07;101416.97;5077228;28;20070;-81
2021/03/17 10:46:58;;;;;;;9.55;4.40;;;;;;;8.69;59.70;101419.47;5076597;28;20020;-81
2021/03/17 10:49:24;;;;;;;13.48;4.75;;;;;;;8.28;62.12;101423.59;5076647;28;20074;-81
2021/03/17 10:51:54;;;;;;;7.93;3.88;;;;;;;8.99;59.87;101416.97;5077524;28;20032;-81
2021/03/17 10:54:30;;;;;;;10.25;4.40;;;;;;;8.70;60.51;101421.19;5077273;28;20036;-81
2021/03/17 10:56:56;;;;;;;16.38;4.82;;;;;;;7.92;61.80;101416.47;5077075;28;20035;-82
2021/03/17 10:59:38;;;;;;;10.80;4.55;;;;;;;7.89;62.05;101405.28;5077333;28;20025;-81
2021/03/17 11:02:23;;;;;;;13.10;4.30;;;;;;;8.33;62.62;101418.44;5076175;28;20017;-81
2021/03/17 11:05:07;;;;;;;11.55;4.20;;;;;;;7.81;64.06;101415.53;5077822;28;20024;-81
2021/03/17 11:08:10;;;;;;;11.75;4.63;;;;;;;8.03;62.82;101404.47;5077843;28;20028;-81
2021/03/17 11:10:46;;;;;;;11.80;4.32;;;;;;;7.47;64.56;101411.84;5076324;28;20020;-82
2021/03/17 11:13:17;;;;;;;12.73;4.72;;;;;;;7.39;65.53;101409.22;5077514;28;20044;-82
2021/03/17 11:15:47;;;;;;;13.20;4.68;;;;;;;7.49;64.64;101412.72;5075972;28;20377;-81
2021/03/17 11:18:25;;;;;;;11.20;4.70;;;;;;;6.77;67.55;101417.16;5076800;28;20051;-81
2021/03/17 11:20:53;;;;;;;12.48;4.35;;;;;;;6.19;69.31;101415.63;5075276;28;20021;-81
2021/03/17 11:23:24;;;;;;;11.55;5.07;;;;;;;6.40;69.01;101422.78;5076111;28;20435;-81
2021/03/17 11:25:51;;;;;;;17.40;5.55;;;;;;;5.72;70.63;101422.59;5091902;28;20028;-81
2021/03/17 11:28:19;;;;;;;12.00;3.97;;;;;;;5.97;70.35;101411.88;5077857;28;20546;-81
2021/03/17 11:30:46;;;;;;;9.55;4.68;;;;;;;6.30;69.54;101415.75;5075254;28;20035;-81
2021/03/17 11:33:13;;;;;;;11.52;4.65;;;;;;;7.52;66.25;101411.03;5075055;28;20055;-81
2021/03/17 11:35:43;;;;;;;11.95;4.30;;;;;;;9.49;59.72;101407.53;5076377;28;20527;-81